Rayburn, Texas
Current Conditions -  °F | °C
As of 8:15 AM on Monday 22 Dec 2014 (Local Time) from K6R3 Reporting Station
Haze Haze  
Wind Chill: 60°   Ceiling: 300
Heat Index: 60°   Visibility: 1mi
Dew Point: 60°   Wind: 7mph
Humidity: 99%   Direction: 170°S
Pressure: 29.76"   Gusts: NA
Location:  30.2945°N, 94.9711°W
Report Text: K6R3 221415Z AUTO 17006KT 1SM BR OVC003 16/16 A2976 RMK AO2 T01560155
Loading
Personal Weather Stations






























Interactive Weather Map New forecast layout! Learn more

10-Day Weather Forecast

Advertisements
Track Severe Weather on mobile